Jerry Torok — WDI4934 — position and weather

sailwx.info

Track history (hours):
 
Tides and Currents Weather Stations Pressure Air Temp Water Temp Dewpoint Dewpoint Depression Visibility Wind Speed Wind Dir Waves Ship Positions

Jerry Torok

Owner: American Commercial Lines LLC, Jeffersonville, IN. More information available from US FCC via Universal Licensing System and Coast Guard Vessel Documentation Center.

Last reported at 2018-Feb-25 15:00 UTC. Time now 2018-Feb-25 15:22 UTC.
Position N 30°08' W 093°19'.

Length 22 m.

Type: Tug. MMSI: 367703560.

Date/timePositionNaut miles runAvg speedWind from/ knotsBaromVisibWave heightAir tempDewpointWater temp
2018-Feb-25 15:00N 30°08' W 093°19'0 0.0
2018-Feb-25 14:30N 30°08' W 093°19'0 0.0
2018-Feb-25 14:00N 30°08' W 093°19'0 0.0
2018-Feb-25 13:28N 30°08' W 093°19'0 0.0
2018-Feb-25 13:00N 30°08' W 093°19'0 0.0
2018-Feb-25 12:30N 30°08' W 093°19'0 0.0
2018-Feb-25 11:59N 30°08' W 093°19'0 0.0
2018-Feb-25 11:29N 30°08' W 093°19'0 0.0
2018-Feb-25 11:00N 30°08' W 093°19'0 0.0
2018-Feb-25 10:28N 30°08' W 093°19'0 0.0
2018-Feb-25 10:00N 30°08' W 093°19'0 0.0
2018-Feb-25 09:26N 30°08' W 093°19'0 0.0
2018-Feb-25 09:00N 30°08' W 093°19'0 0.0
2018-Feb-25 08:31N 30°08' W 093°19'0 0.0
2018-Feb-25 08:00N 30°08' W 093°19'0 0.0
2018-Feb-25 07:30N 30°08' W 093°19'0 0.0
2018-Feb-25 06:58N 30°08' W 093°19'0 0.1
2018-Feb-25 06:31N 30°08' W 093°19'0 0.6
2018-Feb-25 06:00N 30°08' W 093°20'0 0.1
2018-Feb-25 05:30N 30°08' W 093°20'0 0.0
2018-Feb-25 05:00N 30°08' W 093°20'0 0.4
2018-Feb-25 04:31N 30°08' W 093°20'2 4.9
2018-Feb-25 04:00N 30°06' W 093°19'1 1.0
2018-Feb-25 03:30N 30°06' W 093°19'0 0.0
2018-Feb-25 03:00N 30°06' W 093°19'0 0.0
2018-Feb-25 02:31N 30°06' W 093°19'0 0.0
2018-Feb-25 02:01N 30°06' W 093°19'0 0.0
2018-Feb-25 01:31N 30°06' W 093°19'0 0.0
2018-Feb-25 01:01N 30°06' W 093°19'0 0.0
2018-Feb-25 00:31N 30°06' W 093°19'0 0.0
2018-Feb-25 00:01N 30°06' W 093°19'0 0.1
2018-Feb-24 23:30N 30°06' W 093°19'0 0.0
2018-Feb-24 23:01N 30°06' W 093°19'0 0.0
2018-Feb-24 22:30N 30°06' W 093°19'0 0.0
2018-Feb-24 22:00N 30°06' W 093°19'0 0.0
2018-Feb-24 21:31N 30°06' W 093°19'0 0.0
2018-Feb-24 21:01N 30°06' W 093°19'0 0.0
2018-Feb-24 20:31N 30°06' W 093°19'0 0.0
2018-Feb-24 20:01N 30°06' W 093°19'0 0.0
2018-Feb-24 19:31N 30°06' W 093°19'0 0.0
2018-Feb-24 19:01N 30°06' W 093°19'0 0.0
2018-Feb-24 18:31N 30°06' W 093°19'0 0.0
2018-Feb-24 18:01N 30°06' W 093°19'0 0.0
2018-Feb-24 17:31N 30°06' W 093°19'0 0.0
2018-Feb-24 17:01N 30°06' W 093°19'0 0.0
2018-Feb-24 16:30N 30°06' W 093°19'0 0.0
2018-Feb-24 16:00N 30°06' W 093°19'0 0.0
2018-Feb-24 15:30N 30°06' W 093°19'0 0.0
2018-Feb-24 15:01N 30°06' W 093°19'0 0.0
2018-Feb-24 14:31N 30°06' W 093°19'0 0.0
2018-Feb-24 14:01N 30°06' W 093°19'0 0.0
2018-Feb-24 13:30N 30°06' W 093°19'0 0.0
2018-Feb-24 13:01N 30°06' W 093°19'0 0.0
2018-Feb-24 12:31N 30°06' W 093°19'0 0.0
2018-Feb-24 12:00N 30°06' W 093°19'0 0.0
2018-Feb-24 11:30N 30°06' W 093°19'0 0.0
2018-Feb-24 11:00N 30°06' W 093°19'0 0.0
2018-Feb-24 10:31N 30°06' W 093°19'0 0.0
2018-Feb-24 10:00N 30°06' W 093°19'0 0.0
2018-Feb-24 09:30N 30°06' W 093°19'0 0.0
2018-Feb-24 09:00N 30°06' W 093°19'0 0.0
2018-Feb-24 08:30N 30°06' W 093°19'0 0.0
2018-Feb-24 08:00N 30°06' W 093°19'0 0.0
2018-Feb-24 07:30N 30°06' W 093°19'0 0.0
2018-Feb-24 07:00N 30°06' W 093°19'0 0.0
2018-Feb-24 06:31N 30°06' W 093°19'0 0.0
2018-Feb-24 06:00N 30°06' W 093°19'0 0.0
2018-Feb-24 05:28N 30°06' W 093°19'0 0.0
2018-Feb-24 05:00N 30°06' W 093°19'0 0.0
2018-Feb-24 04:30N 30°06' W 093°19'0 0.0
2018-Feb-24 04:00N 30°06' W 093°19'0 0.2
2018-Feb-24 03:30N 30°06' W 093°19'0 0.0
2018-Feb-24 03:00N 30°06' W 093°19'0 0.0
2018-Feb-24 02:30N 30°06' W 093°19'0 0.8
2018-Feb-24 02:01N 30°06' W 093°19'2 4.4
2018-Feb-24 01:30N 30°04' W 093°21'2 4.3
2018-Feb-24 01:01N 30°04' W 093°23'3 5.4
2018-Feb-24 00:30N 30°04' W 093°26'4 5.4
2018-Feb-23 23:50N 30°04' W 093°31'2 5.4
2018-Feb-23 23:28N 30°04' W 093°33'3 6.0
2018-Feb-23 23:00N 30°04' W 093°36'4 7.1
2018-Feb-23 22:30N 30°04' W 093°40'3 5.0
2018-Feb-23 22:00N 30°03' W 093°43'1 1.4
2018-Feb-23 21:30N 30°04' W 093°43'0 0.0
2018-Feb-23 21:00N 30°04' W 093°43'0 0.0
2018-Feb-23 20:30N 30°04' W 093°43'1 1.4
2018-Feb-23 20:00N 30°03' W 093°43'0 0.0
2018-Feb-23 19:30N 30°03' W 093°43'0 0.0
2018-Feb-23 19:01N 30°03' W 093°43'0 0.0
2018-Feb-23 18:30N 30°03' W 093°43'0 0.1
2018-Feb-23 18:00N 30°03' W 093°43'2 4.1
2018-Feb-23 17:30N 30°02' W 093°44'4 7.3
2018-Feb-23 17:00N 29°59' W 093°48'3 6.6
2018-Feb-23 16:30N 29°58' W 093°51'2 3.2
2018-Feb-23 16:00N 29°57' W 093°52'4 7.4
2018-Feb-23 15:30N 29°54' W 093°55'3 6.8
2018-Feb-23 15:00N 29°51' W 093°57'2 4.6
2018-Feb-23 14:31N 29°49' W 093°59'1 1.4
2018-Feb-23 14:01N 29°49' W 093°59'0 0.1
2018-Feb-23 13:30N 29°50' W 093°59'0 0.1
2018-Feb-23 13:00N 29°50' W 093°59'0 0.0
2018-Feb-23 12:30N 29°50' W 093°59'0 0.0
2018-Feb-23 12:00N 29°50' W 093°59'0 0.0
2018-Feb-23 11:30N 29°50' W 093°59'0 0.0
2018-Feb-23 10:59N 29°50' W 093°59'0 0.0
2018-Feb-23 10:30N 29°50' W 093°59'0 0.0
2018-Feb-23 10:00N 29°50' W 093°59'0 0.0
2018-Feb-23 09:30N 29°50' W 093°59'0 0.0
2018-Feb-23 09:01N 29°50' W 093°59'0 0.0
2018-Feb-23 08:31N 29°50' W 093°59'0 0.0
2018-Feb-23 08:00N 29°50' W 093°59'0 0.0
2018-Feb-23 07:30N 29°50' W 093°59'0 0.0
2018-Feb-23 07:00N 29°50' W 093°59'0 0.0
2018-Feb-23 06:30N 29°50' W 093°59'0 0.0
2018-Feb-23 06:00N 29°50' W 093°59'0 0.0
2018-Feb-23 05:30N 29°50' W 093°59'0 0.0
2018-Feb-23 05:00N 29°50' W 093°59'0 0.0
2018-Feb-23 04:31N 29°50' W 093°59'0 0.0
2018-Feb-23 04:00N 29°50' W 093°59'0 0.0
2018-Feb-23 03:30N 29°50' W 093°59'0 0.0
2018-Feb-23 03:00N 29°50' W 093°59'0 0.0
2018-Feb-23 02:30N 29°50' W 093°59'0 0.0
2018-Feb-23 02:00N 29°50' W 093°59'0 0.0
2018-Feb-23 01:30N 29°50' W 093°59'0 0.0
2018-Feb-23 01:00N 29°50' W 093°59'0 0.0
2018-Feb-23 00:31N 29°50' W 093°59'0 0.0
2018-Feb-23 00:00N 29°50' W 093°59'0 0.4
2018-Feb-22 23:30N 29°49' W 093°59'0 0.9
2018-Feb-22 23:00N 29°49' W 093°59'0 0.0
2018-Feb-22 22:30N 29°49' W 093°59'0 0.0
2018-Feb-22 22:00N 29°49' W 093°59'1 1.5
2018-Feb-22 21:30N 29°49' W 093°58'0 0.0
2018-Feb-22 21:00N 29°49' W 093°58'0 0.0
2018-Feb-22 20:30N 29°49' W 093°58'0 0.0
2018-Feb-22 20:00N 29°49' W 093°58'0 0.0
2018-Feb-22 19:30N 29°49' W 093°58'0 0.0
2018-Feb-22 19:01N 29°49' W 093°58'0 0.0
2018-Feb-22 18:30N 29°49' W 093°58'0 0.0
2018-Feb-22 18:01N 29°49' W 093°58'0 0.0
2018-Feb-22 17:30N 29°49' W 093°58'0 0.0
2018-Feb-22 17:01N 29°49' W 093°58'0 0.0
2018-Feb-22 16:30N 29°49' W 093°58'0 0.0
2018-Feb-22 16:00N 29°49' W 093°58'0 0.0
2018-Feb-22 15:30N 29°49' W 093°58'0 0.0
2018-Feb-22 15:01N 29°49' W 093°58'0 0.0
2018-Feb-22 14:30N 29°49' W 093°58'0 0.0
2018-Feb-22 14:00N 29°49' W 093°58'0 0.0
2018-Feb-22 13:31N 29°49' W 093°58'0 0.0
2018-Feb-22 13:01N 29°49' W 093°58'0 0.0
2018-Feb-22 12:31N 29°49' W 093°58'0 0.0
2018-Feb-22 12:01N 29°49' W 093°58'0 0.0
2018-Feb-22 11:31N 29°49' W 093°58'0 0.0
2018-Feb-22 11:01N 29°49' W 093°58'0 0.0
2018-Feb-22 10:31N 29°49' W 093°58'0 0.0
2018-Feb-22 10:00N 29°49' W 093°58'0 0.0
2018-Feb-22 09:31N 29°49' W 093°58'0 0.0
2018-Feb-22 09:01N 29°49' W 093°58'0 0.0
2018-Feb-22 08:30N 29°49' W 093°58'0 0.0
2018-Feb-22 08:00N 29°49' W 093°58'0 0.0
2018-Feb-22 07:30N 29°49' W 093°58'0 0.0
2018-Feb-22 07:01N 29°49' W 093°58'0 0.0
2018-Feb-22 06:31N 29°49' W 093°58'0 0.0
2018-Feb-22 06:01N 29°49' W 093°58'0 0.0
2018-Feb-22 05:31N 29°49' W 093°58'0 0.0
2018-Feb-22 05:00N 29°49' W 093°58'0 0.0
2018-Feb-22 04:31N 29°49' W 093°58'0 0.0
2018-Feb-22 04:00N 29°49' W 093°58'0 0.0
2018-Feb-22 03:30N 29°49' W 093°58'0 0.0
2018-Feb-22 03:00N 29°49' W 093°58'0 0.0
2018-Feb-22 02:30N 29°49' W 093°58'0 0.0
2018-Feb-22 02:00N 29°49' W 093°58'0 0.0
2018-Feb-22 01:30N 29°49' W 093°58'0 0.0
2018-Feb-22 01:00N 29°49' W 093°58'0 0.0
2018-Feb-22 00:30N 29°49' W 093°58'0 0.0
2018-Feb-22 00:01N 29°49' W 093°58'1 1.1
2018-Feb-21 23:30N 29°50' W 093°58'0 0.0
2018-Feb-21 23:00N 29°50' W 093°58'1 1.2
2018-Feb-21 22:31N 29°49' W 093°58'0 0.0
2018-Feb-21 22:00N 29°49' W 093°58'0 0.0
2018-Feb-21 21:31N 29°49' W 093°58'0 0.0
2018-Feb-21 21:01N 29°49' W 093°58'0 0.0
2018-Feb-21 20:30N 29°49' W 093°58'0 0.0
2018-Feb-21 20:01N 29°49' W 093°58'0 0.0
2018-Feb-21 19:30N 29°49' W 093°58'0 0.0
2018-Feb-21 19:00N 29°49' W 093°58'0 0.0
2018-Feb-21 18:30N 29°49' W 093°58'0 0.3
2018-Feb-21 18:00N 29°49' W 093°58'0 1.0
2018-Feb-21 17:30N 29°50' W 093°58'0 0.0
2018-Feb-21 17:00N 29°50' W 093°58'0 0.0
2018-Feb-21 16:30N 29°50' W 093°58'0 0.0
2018-Feb-21 16:01N 29°50' W 093°58'1 1.1
2018-Feb-21 15:30N 29°49' W 093°58'0 0.0
2018-Feb-21 15:01N 29°49' W 093°58'0 0.0
2018-Feb-21 14:30N 29°49' W 093°58'0 0.0
2018-Feb-21 14:01N 29°49' W 093°58'0 0.0
2018-Feb-21 13:31N 29°49' W 093°58'0 0.0
2018-Feb-21 13:00N 29°49' W 093°58'0 0.0
2018-Feb-21 12:31N 29°49' W 093°58'0 0.0
2018-Feb-21 12:01N 29°49' W 093°58'0 0.0
2018-Feb-21 11:30N 29°49' W 093°58'0 0.0
2018-Feb-21 11:01N 29°49' W 093°58'0 0.0
2018-Feb-21 10:30N 29°49' W 093°58'0 0.0
2018-Feb-21 10:00N 29°49' W 093°58'0 0.0
2018-Feb-21 09:30N 29°49' W 093°58'0 0.0
2018-Feb-21 09:00N 29°49' W 093°58'0 0.0
2018-Feb-21 08:30N 29°49' W 093°58'0 0.0
2018-Feb-21 08:01N 29°49' W 093°58'0 0.0
2018-Feb-21 07:30N 29°49' W 093°58'0 0.0
2018-Feb-21 07:00N 29°49' W 093°58'0 0.0
2018-Feb-21 06:30N 29°49' W 093°58'0 0.0
2018-Feb-21 06:00N 29°49' W 093°58'0 0.0
2018-Feb-21 05:30N 29°49' W 093°58'0 0.0
2018-Feb-21 05:00N 29°49' W 093°58'0 0.0
2018-Feb-21 04:30N 29°49' W 093°58'0 0.0
2018-Feb-21 04:01N 29°49' W 093°58'0 0.0
2018-Feb-21 03:31N 29°49' W 093°58'0 0.0
2018-Feb-21 03:00N 29°49' W 093°58'0 0.0
2018-Feb-21 02:30N 29°49' W 093°58'0 0.0
2018-Feb-21 02:01N 29°49' W 093°58'0 0.0
2018-Feb-21 01:30N 29°49' W 093°58'0 0.0
2018-Feb-21 01:01N 29°49' W 093°58'0 0.0
2018-Feb-21 00:30N 29°49' W 093°58'0 0.0
2018-Feb-21 00:01N 29°49' W 093°58'2 4.0
2018-Feb-20 23:31N 29°51' W 093°57'4 7.8
2018-Feb-20 23:00N 29°54' W 093°54'4 8.2
2018-Feb-20 22:30N 29°58' W 093°51'3 5.7
2018-Feb-20 22:00N 29°59' W 093°54'4 7.3
2018-Feb-20 21:30N 30°01' W 093°58'3 7.0
2018-Feb-20 21:00N 30°02' W 094°02'0 0.7
2018-Feb-20 20:30N 30°02' W 094°02'0 0.0
2018-Feb-20 20:01N 30°02' W 094°02'0 0.0
2018-Feb-20 19:30N 30°02' W 094°02'0 0.0
2018-Feb-20 19:01N 30°02' W 094°02'0 0.0
2018-Feb-20 18:30N 30°02' W 094°02'0 0.0
2018-Feb-20 18:00N 30°02' W 094°02'0 0.0
2018-Feb-20 17:30N 30°02' W 094°02'0 0.0
2018-Feb-20 16:59N 30°02' W 094°02'0 0.0
2018-Feb-20 16:31N 30°02' W 094°02'0 0.0
2018-Feb-20 16:01N 30°02' W 094°02'0 0.0
2018-Feb-20 15:30N 30°02' W 094°02'0 0.0
2018-Feb-20 15:01N 30°02' W 094°02'0 0.0
2018-Feb-20 14:29N 30°02' W 094°02'0 0.0
2018-Feb-20 14:00N 30°02' W 094°02'0 0.0
2018-Feb-20 13:30N 30°02' W 094°02'0 0.0
2018-Feb-20 12:59N 30°02' W 094°02'0 0.0
2018-Feb-20 12:30N 30°02' W 094°02'0 0.0
2018-Feb-20 12:00N 30°02' W 094°02'0 0.0
2018-Feb-20 11:30N 30°02' W 094°02'0 0.0
2018-Feb-20 11:01N 30°02' W 094°02'0 0.0
2018-Feb-20 10:30N 30°02' W 094°02'0 0.0
2018-Feb-20 10:00N 30°02' W 094°02'0 0.0
2018-Feb-20 09:30N 30°02' W 094°02'0 0.0
2018-Feb-20 09:00N 30°02' W 094°02'0 0.0
2018-Feb-20 08:31N 30°02' W 094°02'0 0.0
2018-Feb-20 08:00N 30°02' W 094°02'0 0.0
2018-Feb-20 07:30N 30°02' W 094°02'0 0.0
2018-Feb-20 06:59N 30°02' W 094°02'0 0.0
2018-Feb-20 06:31N 30°02' W 094°02'0 0.0
2018-Feb-20 06:00N 30°02' W 094°02'0 0.0
2018-Feb-20 05:30N 30°02' W 094°02'0 0.0
2018-Feb-20 05:00N 30°02' W 094°02'0 0.0
2018-Feb-20 04:30N 30°02' W 094°02'0 0.0
2018-Feb-20 04:01N 30°02' W 094°02'0 0.0
2018-Feb-20 03:29N 30°02' W 094°02'0 0.0
2018-Feb-20 03:00N 30°02' W 094°02'0 0.0
2018-Feb-20 02:30N 30°02' W 094°02'0 0.0
2018-Feb-20 02:00N 30°02' W 094°02'0 0.0
2018-Feb-20 01:30N 30°02' W 094°02'0 0.0
2018-Feb-20 00:57N 30°02' W 094°02'0 0.0
2018-Feb-20 00:31N 30°02' W 094°02'0 0.0
2018-Feb-19 23:58N 30°02' W 094°02'0 0.0
2018-Feb-19 23:30N 30°02' W 094°02'0 0.0
2018-Feb-19 23:00N 30°02' W 094°02'0 0.0
2018-Feb-19 22:30N 30°02' W 094°02'0 0.0
2018-Feb-19 22:00N 30°02' W 094°02'0 0.0
2018-Feb-19 21:30N 30°02' W 094°02'0 0.0
2018-Feb-19 21:00N 30°02' W 094°02'0 0.0
2018-Feb-19 20:30N 30°02' W 094°02'0 0.0
2018-Feb-19 20:00N 30°02' W 094°02'0 0.0
2018-Feb-19 19:30N 30°02' W 094°02'0 0.0
2018-Feb-19 18:59N 30°02' W 094°02'0 0.0
2018-Feb-19 18:30N 30°02' W 094°02'0 0.0
2018-Feb-19 18:00N 30°02' W 094°02'0 0.0
2018-Feb-19 17:30N 30°02' W 094°02'0 0.0
2018-Feb-19 17:00N 30°02' W 094°02'0 0.1
2018-Feb-19 16:30N 30°02' W 094°02'0 0.0
2018-Feb-19 16:00N 30°02' W 094°02'0 0.0
2018-Feb-19 15:30N 30°02' W 094°02'0 0.0
2018-Feb-19 15:00N 30°02' W 094°02'0 0.0
2018-Feb-19 14:29N 30°02' W 094°02'0 0.0
2018-Feb-19 14:00N 30°02' W 094°02'0 0.0
2018-Feb-19 13:30N 30°02' W 094°02'0 0.0
2018-Feb-19 13:00N 30°02' W 094°02'0 0.0
2018-Feb-19 12:30N 30°02' W 094°02'0 0.0
2018-Feb-19 11:58N 30°02' W 094°02'0 0.0
2018-Feb-19 11:30N 30°02' W 094°02'0 0.0
2018-Feb-19 10:59N 30°02' W 094°02'0 0.0
2018-Feb-19 10:30N 30°02' W 094°02'0 0.0
2018-Feb-19 10:00N 30°02' W 094°02'0 0.0
2018-Feb-19 09:30N 30°02' W 094°02'0 0.0
2018-Feb-19 09:00N 30°02' W 094°02'0 0.0
2018-Feb-19 08:30N 30°02' W 094°02'0 0.0
2018-Feb-19 08:00N 30°02' W 094°02'0 0.0
2018-Feb-19 07:30N 30°02' W 094°02'0 0.0
2018-Feb-19 07:00N 30°02' W 094°02'0 0.0
2018-Feb-19 06:30N 30°02' W 094°02'0 0.0
2018-Feb-19 06:00N 30°02' W 094°02'0 0.0
2018-Feb-19 05:30N 30°02' W 094°02'0 0.0
2018-Feb-19 04:59N 30°02' W 094°02'0 0.0
2018-Feb-19 04:30N 30°02' W 094°02'0 0.0
2018-Feb-19 04:00N 30°02' W 094°02'0 0.0
2018-Feb-19 03:30N 30°02' W 094°02'0 0.0
2018-Feb-19 03:00N 30°02' W 094°02'0 0.0
2018-Feb-19 02:31N 30°02' W 094°02'0 0.0
2018-Feb-19 02:01N 30°02' W 094°02'0 0.0
2018-Feb-19 01:30N 30°02' W 094°02'0 0.0
2018-Feb-19 01:00N 30°02' W 094°02'0 0.0
2018-Feb-19 00:30N 30°02' W 094°02'0 0.0
2018-Feb-19 00:00N 30°02' W 094°02'0 0.0
2018-Feb-18 23:30N 30°02' W 094°02'0 0.0
2018-Feb-18 23:01N 30°02' W 094°02'0 0.0
2018-Feb-18 22:30N 30°02' W 094°02'0 0.0
2018-Feb-18 22:00N 30°02' W 094°02'0 0.0
2018-Feb-18 21:30N 30°02' W 094°02'0 0.0
2018-Feb-18 21:01N 30°02' W 094°02'0 0.0
2018-Feb-18 20:31N 30°02' W 094°02'0 0.0
2018-Feb-18 20:00N 30°02' W 094°02'0 0.0
2018-Feb-18 19:30N 30°02' W 094°02'0 0.0
2018-Feb-18 18:59N 30°02' W 094°02'0 0.0
2018-Feb-18 18:29N 30°02' W 094°02'0 0.0
2018-Feb-18 18:01N 30°02' W 094°02'0 0.0
2018-Feb-18 17:31N 30°02' W 094°02'0 0.0
2018-Feb-18 17:00N 30°02' W 094°02'0 0.4
2018-Feb-18 16:31N 30°02' W 094°02'1 2.5
2018-Feb-18 16:00N 30°03' W 094°02'0 0.6
2018-Feb-18 15:31N 30°03' W 094°02'0 0.0
2018-Feb-18 15:01N 30°03' W 094°02'0 0.0
2018-Feb-18 14:30N 30°03' W 094°02'0 0.0
2018-Feb-18 14:01N 30°03' W 094°02'0 0.0
2018-Feb-18 13:31N 30°03' W 094°02'0 0.0
2018-Feb-18 13:01N 30°03' W 094°02'0 0.0
2018-Feb-18 12:31N 30°03' W 094°02'0 0.0
2018-Feb-18 12:00N 30°03' W 094°02'0 0.0
2018-Feb-18 11:31N 30°03' W 094°02'0 0.0
2018-Feb-18 10:59N 30°03' W 094°02'0 0.0
2018-Feb-18 10:30N 30°03' W 094°02'0 0.0
2018-Feb-18 10:00N 30°03' W 094°02'0 0.0
2018-Feb-18 09:30N 30°03' W 094°02'0 0.0
2018-Feb-18 09:01N 30°03' W 094°02'0 0.0
2018-Feb-18 08:30N 30°03' W 094°02'0 0.0
2018-Feb-18 08:01N 30°03' W 094°02'0 0.0
2018-Feb-18 07:31N 30°03' W 094°02'0 0.0
2018-Feb-18 07:00N 30°03' W 094°02'0 0.0
2018-Feb-18 06:30N 30°03' W 094°02'0 0.0
2018-Feb-18 06:00N 30°03' W 094°02'0 0.0
2018-Feb-18 05:30N 30°03' W 094°02'0 0.0
2018-Feb-18 04:59N 30°03' W 094°02'0 0.0
2018-Feb-18 04:29N 30°03' W 094°02'0 0.0
2018-Feb-18 04:01N 30°03' W 094°02'0 0.0
2018-Feb-18 03:31N 30°03' W 094°02'0 0.0
2018-Feb-18 03:01N 30°03' W 094°02'0 0.0
2018-Feb-18 02:31N 30°03' W 094°02'0 0.0
2018-Feb-18 02:00N 30°03' W 094°02'0 0.0
2018-Feb-18 01:31N 30°03' W 094°02'0 0.0
2018-Feb-18 01:01N 30°03' W 094°02'0 0.0
2018-Feb-18 00:30N 30°03' W 094°02'0 0.0
2018-Feb-18 00:00N 30°03' W 094°02'0 0.0
2018-Feb-17 23:31N 30°03' W 094°02'0 0.0
2018-Feb-17 23:00N 30°03' W 094°02'0 0.0
2018-Feb-17 22:30N 30°03' W 094°02'0 0.0
2018-Feb-17 22:00N 30°03' W 094°02'0 0.0
2018-Feb-17 21:30N 30°03' W 094°02'0 0.0
2018-Feb-17 21:00N 30°03' W 094°02'0 0.0
2018-Feb-17 20:30N 30°03' W 094°02'0 0.0
2018-Feb-17 20:00N 30°03' W 094°02'0 0.0
2018-Feb-17 19:29N 30°03' W 094°02'0 0.0
2018-Feb-17 19:00N 30°03' W 094°02'0 0.0
2018-Feb-17 18:30N 30°03' W 094°02'0 0.0
2018-Feb-17 18:01N 30°03' W 094°02'0 0.0
2018-Feb-17 17:30N 30°03' W 094°02'0 0.0
2018-Feb-17 17:01N 30°03' W 094°02'0 0.0
2018-Feb-17 16:30N 30°03' W 094°02'0 0.0
2018-Feb-17 16:00N 30°03' W 094°02'0 0.0
2018-Feb-17 15:31N 30°03' W 094°02'0 0.0
2018-Feb-17 15:00N 30°03' W 094°02'0 0.0
2018-Feb-17 14:30N 30°03' W 094°02'0 0.0
2018-Feb-17 14:00N 30°03' W 094°02'0 0.0
2018-Feb-17 13:31N 30°03' W 094°02'0 0.0
2018-Feb-17 13:00N 30°03' W 094°02'0 0.0
2018-Feb-17 12:30N 30°03' W 094°02'0 0.0
2018-Feb-17 12:00N 30°03' W 094°02'0 0.0
2018-Feb-17 11:29N 30°03' W 094°02'0 0.0
2018-Feb-17 11:00N 30°03' W 094°02'0 0.0
2018-Feb-17 10:30N 30°03' W 094°02'0 0.0
2018-Feb-17 10:00N 30°03' W 094°02'0 0.0
2018-Feb-17 09:30N 30°03' W 094°02'0 0.0
2018-Feb-17 09:00N 30°03' W 094°02'0 0.0
2018-Feb-17 08:29N 30°03' W 094°02'0 0.0
2018-Feb-17 08:00N 30°03' W 094°02'0 0.0
2018-Feb-17 07:30N 30°03' W 094°02'0 0.0
2018-Feb-17 07:00N 30°03' W 094°02'0 0.0
2018-Feb-17 06:30N 30°03' W 094°02'0 0.0
2018-Feb-17 06:00N 30°03' W 094°02'0 0.0
2018-Feb-17 05:30N 30°03' W 094°02'0 0.0
2018-Feb-17 05:00N 30°03' W 094°02'0 0.0
2018-Feb-17 04:30N 30°03' W 094°02'0 0.0
2018-Feb-17 04:00N 30°03' W 094°02'0 0.0
2018-Feb-17 03:30N 30°03' W 094°02'0 0.0
2018-Feb-17 03:00N 30°03' W 094°02'0 0.0
2018-Feb-17 02:30N 30°03' W 094°02'0 0.0
2018-Feb-17 02:00N 30°03' W 094°02'0 0.0
2018-Feb-17 01:30N 30°03' W 094°02'0 0.0
2018-Feb-17 01:00N 30°03' W 094°02'0 0.0
2018-Feb-17 00:29N 30°03' W 094°02'0 0.0
2018-Feb-17 00:00N 30°03' W 094°02'0 0.0
2018-Feb-16 23:30N 30°03' W 094°02'0 0.0
2018-Feb-16 23:00N 30°03' W 094°02'0 0.0
2018-Feb-16 22:30N 30°03' W 094°02'0 0.0
2018-Feb-16 22:00N 30°03' W 094°02'0 0.1
2018-Feb-16 21:31N 30°03' W 094°02'0 0.3
2018-Feb-16 21:00N 30°02' W 094°02'1 1.7
2018-Feb-16 20:31N 30°02' W 094°02'3 6.3
2018-Feb-16 20:00N 30°01' W 093°58'3 5.8
2018-Feb-16 19:30N 29°59' W 093°55'3 6.5
2018-Feb-16 19:00N 29°59' W 093°52'2 4.0
2018-Feb-16 18:31N 29°59' W 093°49'2 4.6
2018-Feb-16 18:00N 29°60' W 093°47'0 0.1
2018-Feb-16 17:30N 29°60' W 093°47'1 2.9
2018-Feb-16 17:00N 30°01' W 093°46'3 5.6
2018-Feb-16 16:30N 30°03' W 093°44'1 1.7
2018-Feb-16 16:00N 30°03' W 093°43'0 0.0
2018-Feb-16 15:30N 30°03' W 093°43'0 0.0
2018-Feb-16 15:00N 30°03' W 093°43'0 0.0
2018-Feb-16 14:30N 30°03' W 093°43'0 0.0
2018-Feb-16 14:00N 30°03' W 093°43'0 0.0
2018-Feb-16 13:31N 30°03' W 093°43'0 0.0
2018-Feb-16 13:00N 30°03' W 093°43'0 0.0
2018-Feb-16 12:26N 30°03' W 093°43'0 0.0
2018-Feb-16 12:00N 30°03' W 093°43'0 0.0
2018-Feb-16 11:31N 30°03' W 093°43'0 0.0
2018-Feb-16 11:00N 30°03' W 093°43'0 0.0
2018-Feb-16 10:31N 30°03' W 093°43'0 0.0
2018-Feb-16 10:00N 30°03' W 093°43'0 0.0
2018-Feb-16 09:30N 30°03' W 093°43'0 0.0
2018-Feb-16 09:00N 30°03' W 093°43'0 0.0
2018-Feb-16 08:30N 30°03' W 093°43'0 0.0
2018-Feb-16 08:00N 30°03' W 093°43'0 0.0
2018-Feb-16 07:30N 30°03' W 093°43'0 0.0
2018-Feb-16 07:00N 30°03' W 093°43'0 0.0
2018-Feb-16 06:29N 30°03' W 093°43'0 0.0
2018-Feb-16 06:00N 30°03' W 093°43'0 0.0
2018-Feb-16 05:30N 30°03' W 093°43'0 0.0
2018-Feb-16 05:00N 30°03' W 093°43'0 0.0
2018-Feb-16 04:30N 30°03' W 093°43'0 0.0
2018-Feb-16 04:00N 30°03' W 093°43'0 0.0
2018-Feb-16 03:30N 30°03' W 093°43'0 0.0
2018-Feb-16 03:00N 30°03' W 093°43'0 0.0
2018-Feb-16 02:31N 30°03' W 093°43'0 0.0
2018-Feb-16 02:00N 30°03' W 093°43'0 0.0
2018-Feb-16 01:29N 30°03' W 093°43'0 0.1
2018-Feb-16 01:00N 30°03' W 093°43'0 0.3
2018-Feb-16 00:31N 30°03' W 093°43'2 4.1
2018-Feb-16 00:00N 30°04' W 093°41'2 5.0
2018-Feb-15 23:30N 30°04' W 093°38'2 4.4
2018-Feb-15 23:00N 30°04' W 093°35'2 4.1
2018-Feb-15 22:30N 30°04' W 093°33'2 4.3
2018-Feb-15 22:00N 30°04' W 093°30'2 4.2
2018-Feb-15 21:30N 30°04' W 093°28'2 4.4
2018-Feb-15 21:00N 30°04' W 093°25'2 4.3
2018-Feb-15 20:31N 30°04' W 093°23'2 3.8
2018-Feb-15 20:00N 30°04' W 093°21'2 3.7
2018-Feb-15 19:31N 30°05' W 093°20'3 5.0
2018-Feb-15 19:01N 30°08' W 093°20'3 5.0
2018-Feb-15 18:31N 30°10' W 093°19'2 3.8
2018-Feb-15 18:01N 30°12' W 093°18'2 4.1
2018-Feb-15 17:31N 30°13' W 093°16'1 1.8
2018-Feb-15 17:01N 30°14' W 093°16'0 0.1
2018-Feb-15 16:31N 30°14' W 093°15'0 0.1
2018-Feb-15 16:01N 30°14' W 093°15'0 0.0
2018-Feb-15 15:31N 30°14' W 093°15'0 0.0
2018-Feb-15 15:01N 30°14' W 093°15'  
Track history (hours):
 
Tides and Currents Weather Stations Pressure Air Temp Water Temp Dewpoint Dewpoint Depression Visibility Wind Speed Wind Dir Waves Ship Positions

Jerry Torok

Owner: American Commercial Lines LLC, Jeffersonville, IN. More information available from US FCC via Universal Licensing System and Coast Guard Vessel Documentation Center.

Last reported at 2018-Feb-25 15:00 UTC. Time now 2018-Feb-25 15:23 UTC.
Position N 30°08' W 093°19'.

Length 22 m.

Type: Tug. MMSI: 367703560.

Date/timePositionNaut miles runAvg speedWind from/ knotsBaromVisibWave heightAir tempDewpointWater temp
2018-Feb-25 15:00N 30°08' W 093°19'0 0.0
2018-Feb-25 14:30N 30°08' W 093°19'0 0.0
2018-Feb-25 14:00N 30°08' W 093°19'0 0.0
2018-Feb-25 13:28N 30°08' W 093°19'0 0.0
2018-Feb-25 13:00N 30°08' W 093°19'0 0.0
2018-Feb-25 12:30N 30°08' W 093°19'0 0.0
2018-Feb-25 11:59N 30°08' W 093°19'0 0.0
2018-Feb-25 11:29N 30°08' W 093°19'0 0.0
2018-Feb-25 11:00N 30°08' W 093°19'0 0.0
2018-Feb-25 10:28N 30°08' W 093°19'0 0.0
2018-Feb-25 10:00N 30°08' W 093°19'0 0.0
2018-Feb-25 09:26N 30°08' W 093°19'0 0.0
2018-Feb-25 09:00N 30°08' W 093°19'0 0.0
2018-Feb-25 08:31N 30°08' W 093°19'0 0.0
2018-Feb-25 08:00N 30°08' W 093°19'0 0.0
2018-Feb-25 07:30N 30°08' W 093°19'0 0.0
2018-Feb-25 06:58N 30°08' W 093°19'0 0.1
2018-Feb-25 06:31N 30°08' W 093°19'0 0.6
2018-Feb-25 06:00N 30°08' W 093°20'0 0.1
2018-Feb-25 05:30N 30°08' W 093°20'0 0.0
2018-Feb-25 05:00N 30°08' W 093°20'0 0.4
2018-Feb-25 04:31N 30°08' W 093°20'2 4.9
2018-Feb-25 04:00N 30°06' W 093°19'1 1.0
2018-Feb-25 03:30N 30°06' W 093°19'0 0.0
2018-Feb-25 03:00N 30°06' W 093°19'0 0.0
2018-Feb-25 02:31N 30°06' W 093°19'0 0.0
2018-Feb-25 02:01N 30°06' W 093°19'0 0.0
2018-Feb-25 01:31N 30°06' W 093°19'0 0.0
2018-Feb-25 01:01N 30°06' W 093°19'0 0.0
2018-Feb-25 00:31N 30°06' W 093°19'0 0.0
2018-Feb-25 00:01N 30°06' W 093°19'0 0.1
2018-Feb-24 23:30N 30°06' W 093°19'0 0.0
2018-Feb-24 23:01N 30°06' W 093°19'0 0.0
2018-Feb-24 22:30N 30°06' W 093°19'0 0.0
2018-Feb-24 22:00N 30°06' W 093°19'0 0.0
2018-Feb-24 21:31N 30°06' W 093°19'0 0.0
2018-Feb-24 21:01N 30°06' W 093°19'0 0.0
2018-Feb-24 20:31N 30°06' W 093°19'0 0.0
2018-Feb-24 20:01N 30°06' W 093°19'0 0.0
2018-Feb-24 19:31N 30°06' W 093°19'0 0.0
2018-Feb-24 19:01N 30°06' W 093°19'0 0.0
2018-Feb-24 18:31N 30°06' W 093°19'0 0.0
2018-Feb-24 18:01N 30°06' W 093°19'0 0.0
2018-Feb-24 17:31N 30°06' W 093°19'0 0.0
2018-Feb-24 17:01N 30°06' W 093°19'0 0.0
2018-Feb-24 16:30N 30°06' W 093°19'0 0.0
2018-Feb-24 16:00N 30°06' W 093°19'0 0.0
2018-Feb-24 15:30N 30°06' W 093°19'0 0.0
2018-Feb-24 15:01N 30°06' W 093°19'0 0.0
2018-Feb-24 14:31N 30°06' W 093°19'0 0.0
2018-Feb-24 14:01N 30°06' W 093°19'0 0.0
2018-Feb-24 13:30N 30°06' W 093°19'0 0.0
2018-Feb-24 13:01N 30°06' W 093°19'0 0.0
2018-Feb-24 12:31N 30°06' W 093°19'0 0.0
2018-Feb-24 12:00N 30°06' W 093°19'0 0.0
2018-Feb-24 11:30N 30°06' W 093°19'0 0.0
2018-Feb-24 11:00N 30°06' W 093°19'0 0.0
2018-Feb-24 10:31N 30°06' W 093°19'0 0.0
2018-Feb-24 10:00N 30°06' W 093°19'0 0.0
2018-Feb-24 09:30N 30°06' W 093°19'0 0.0
2018-Feb-24 09:00N 30°06' W 093°19'0 0.0
2018-Feb-24 08:30N 30°06' W 093°19'0 0.0
2018-Feb-24 08:00N 30°06' W 093°19'0 0.0
2018-Feb-24 07:30N 30°06' W 093°19'0 0.0
2018-Feb-24 07:00N 30°06' W 093°19'0 0.0
2018-Feb-24 06:31N 30°06' W 093°19'0 0.0
2018-Feb-24 06:00N 30°06' W 093°19'0 0.0
2018-Feb-24 05:28N 30°06' W 093°19'0 0.0
2018-Feb-24 05:00N 30°06' W 093°19'0 0.0
2018-Feb-24 04:30N 30°06' W 093°19'0 0.0
2018-Feb-24 04:00N 30°06' W 093°19'0 0.2
2018-Feb-24 03:30N 30°06' W 093°19'0 0.0
2018-Feb-24 03:00N 30°06' W 093°19'0 0.0
2018-Feb-24 02:30N 30°06' W 093°19'0 0.8
2018-Feb-24 02:01N 30°06' W 093°19'2 4.4
2018-Feb-24 01:30N 30°04' W 093°21'2 4.3
2018-Feb-24 01:01N 30°04' W 093°23'3 5.4
2018-Feb-24 00:30N 30°04' W 093°26'4 5.4
2018-Feb-23 23:50N 30°04' W 093°31'2 5.4
2018-Feb-23 23:28N 30°04' W 093°33'3 6.0
2018-Feb-23 23:00N 30°04' W 093°36'4 7.1
2018-Feb-23 22:30N 30°04' W 093°40'3 5.0
2018-Feb-23 22:00N 30°03' W 093°43'1 1.4
2018-Feb-23 21:30N 30°04' W 093°43'0 0.0
2018-Feb-23 21:00N 30°04' W 093°43'0 0.0
2018-Feb-23 20:30N 30°04' W 093°43'1 1.4
2018-Feb-23 20:00N 30°03' W 093°43'0 0.0
2018-Feb-23 19:30N 30°03' W 093°43'0 0.0
2018-Feb-23 19:01N 30°03' W 093°43'0 0.0
2018-Feb-23 18:30N 30°03' W 093°43'0 0.1
2018-Feb-23 18:00N 30°03' W 093°43'2 4.1
2018-Feb-23 17:30N 30°02' W 093°44'4 7.3
2018-Feb-23 17:00N 29°59' W 093°48'3 6.6
2018-Feb-23 16:30N 29°58' W 093°51'2 3.2
2018-Feb-23 16:00N 29°57' W 093°52'4 7.4
2018-Feb-23 15:30N 29°54' W 093°55'3 6.8
2018-Feb-23 15:00N 29°51' W 093°57'2 4.6
2018-Feb-23 14:31N 29°49' W 093°59'1 1.4
2018-Feb-23 14:01N 29°49' W 093°59'0 0.1
2018-Feb-23 13:30N 29°50' W 093°59'0 0.1
2018-Feb-23 13:00N 29°50' W 093°59'0 0.0
2018-Feb-23 12:30N 29°50' W 093°59'0 0.0
2018-Feb-23 12:00N 29°50' W 093°59'0 0.0
2018-Feb-23 11:30N 29°50' W 093°59'0 0.0
2018-Feb-23 10:59N 29°50' W 093°59'0 0.0
2018-Feb-23 10:30N 29°50' W 093°59'0 0.0
2018-Feb-23 10:00N 29°50' W 093°59'0 0.0
2018-Feb-23 09:30N 29°50' W 093°59'0 0.0
2018-Feb-23 09:01N 29°50' W 093°59'0 0.0
2018-Feb-23 08:31N 29°50' W 093°59'0 0.0
2018-Feb-23 08:00N 29°50' W 093°59'0 0.0
2018-Feb-23 07:30N 29°50' W 093°59'0 0.0
2018-Feb-23 07:00N 29°50' W 093°59'0 0.0
2018-Feb-23 06:30N 29°50' W 093°59'0 0.0
2018-Feb-23 06:00N 29°50' W 093°59'0 0.0
2018-Feb-23 05:30N 29°50' W 093°59'0 0.0
2018-Feb-23 05:00N 29°50' W 093°59'0 0.0
2018-Feb-23 04:31N 29°50' W 093°59'0 0.0
2018-Feb-23 04:00N 29°50' W 093°59'0 0.0
2018-Feb-23 03:30N 29°50' W 093°59'0 0.0
2018-Feb-23 03:00N 29°50' W 093°59'0 0.0
2018-Feb-23 02:30N 29°50' W 093°59'0 0.0
2018-Feb-23 02:00N 29°50' W 093°59'0 0.0
2018-Feb-23 01:30N 29°50' W 093°59'0 0.0
2018-Feb-23 01:00N 29°50' W 093°59'0 0.0
2018-Feb-23 00:31N 29°50' W 093°59'0 0.0
2018-Feb-23 00:00N 29°50' W 093°59'0 0.4
2018-Feb-22 23:30N 29°49' W 093°59'0 0.9
2018-Feb-22 23:00N 29°49' W 093°59'0 0.0
2018-Feb-22 22:30N 29°49' W 093°59'0 0.0
2018-Feb-22 22:00N 29°49' W 093°59'1 1.5
2018-Feb-22 21:30N 29°49' W 093°58'0 0.0
2018-Feb-22 21:00N 29°49' W 093°58'0 0.0
2018-Feb-22 20:30N 29°49' W 093°58'0 0.0
2018-Feb-22 20:00N 29°49' W 093°58'0 0.0
2018-Feb-22 19:30N 29°49' W 093°58'0 0.0
2018-Feb-22 19:01N 29°49' W 093°58'0 0.0
2018-Feb-22 18:30N 29°49' W 093°58'0 0.0
2018-Feb-22 18:01N 29°49' W 093°58'0 0.0
2018-Feb-22 17:30N 29°49' W 093°58'0 0.0
2018-Feb-22 17:01N 29°49' W 093°58'0 0.0
2018-Feb-22 16:30N 29°49' W 093°58'0 0.0
2018-Feb-22 16:00N 29°49' W 093°58'0 0.0
2018-Feb-22 15:30N 29°49' W 093°58'0 0.0
2018-Feb-22 15:01N 29°49' W 093°58'0 0.0
2018-Feb-22 14:30N 29°49' W 093°58'0 0.0
2018-Feb-22 14:00N 29°49' W 093°58'0 0.0
2018-Feb-22 13:31N 29°49' W 093°58'0 0.0
2018-Feb-22 13:01N 29°49' W 093°58'0 0.0
2018-Feb-22 12:31N 29°49' W 093°58'0 0.0
2018-Feb-22 12:01N 29°49' W 093°58'0 0.0
2018-Feb-22 11:31N 29°49' W 093°58'0 0.0
2018-Feb-22 11:01N 29°49' W 093°58'0 0.0
2018-Feb-22 10:31N 29°49' W 093°58'0 0.0
2018-Feb-22 10:00N 29°49' W 093°58'0 0.0
2018-Feb-22 09:31N 29°49' W 093°58'0 0.0
2018-Feb-22 09:01N 29°49' W 093°58'0 0.0
2018-Feb-22 08:30N 29°49' W 093°58'0 0.0
2018-Feb-22 08:00N 29°49' W 093°58'0 0.0
2018-Feb-22 07:30N 29°49' W 093°58'0 0.0
2018-Feb-22 07:01N 29°49' W 093°58'0 0.0
2018-Feb-22 06:31N 29°49' W 093°58'0 0.0
2018-Feb-22 06:01N 29°49' W 093°58'0 0.0
2018-Feb-22 05:31N 29°49' W 093°58'0 0.0
2018-Feb-22 05:00N 29°49' W 093°58'0 0.0
2018-Feb-22 04:31N 29°49' W 093°58'0 0.0
2018-Feb-22 04:00N 29°49' W 093°58'0 0.0
2018-Feb-22 03:30N 29°49' W 093°58'0 0.0
2018-Feb-22 03:00N 29°49' W 093°58'0 0.0
2018-Feb-22 02:30N 29°49' W 093°58'0 0.0
2018-Feb-22 02:00N 29°49' W 093°58'0 0.0
2018-Feb-22 01:30N 29°49' W 093°58'0 0.0
2018-Feb-22 01:00N 29°49' W 093°58'0 0.0
2018-Feb-22 00:30N 29°49' W 093°58'0 0.0
2018-Feb-22 00:01N 29°49' W 093°58'1 1.1
2018-Feb-21 23:30N 29°50' W 093°58'0 0.0
2018-Feb-21 23:00N 29°50' W 093°58'1 1.2
2018-Feb-21 22:31N 29°49' W 093°58'0 0.0
2018-Feb-21 22:00N 29°49' W 093°58'0 0.0
2018-Feb-21 21:31N 29°49' W 093°58'0 0.0
2018-Feb-21 21:01N 29°49' W 093°58'0 0.0
2018-Feb-21 20:30N 29°49' W 093°58'0 0.0
2018-Feb-21 20:01N 29°49' W 093°58'0 0.0
2018-Feb-21 19:30N 29°49' W 093°58'0 0.0
2018-Feb-21 19:00N 29°49' W 093°58'0 0.0
2018-Feb-21 18:30N 29°49' W 093°58'0 0.3
2018-Feb-21 18:00N 29°49' W 093°58'0 1.0
2018-Feb-21 17:30N 29°50' W 093°58'0 0.0
2018-Feb-21 17:00N 29°50' W 093°58'0 0.0
2018-Feb-21 16:30N 29°50' W 093°58'0 0.0
2018-Feb-21 16:01N 29°50' W 093°58'1 1.1
2018-Feb-21 15:30N 29°49' W 093°58'0 0.0
2018-Feb-21 15:01N 29°49' W 093°58'0 0.0
2018-Feb-21 14:30N 29°49' W 093°58'0 0.0
2018-Feb-21 14:01N 29°49' W 093°58'0 0.0
2018-Feb-21 13:31N 29°49' W 093°58'0 0.0
2018-Feb-21 13:00N 29°49' W 093°58'0 0.0
2018-Feb-21 12:31N 29°49' W 093°58'0 0.0
2018-Feb-21 12:01N 29°49' W 093°58'0 0.0
2018-Feb-21 11:30N 29°49' W 093°58'0 0.0
2018-Feb-21 11:01N 29°49' W 093°58'0 0.0
2018-Feb-21 10:30N 29°49' W 093°58'0 0.0
2018-Feb-21 10:00N 29°49' W 093°58'0 0.0
2018-Feb-21 09:30N 29°49' W 093°58'0 0.0
2018-Feb-21 09:00N 29°49' W 093°58'0 0.0
2018-Feb-21 08:30N 29°49' W 093°58'0 0.0
2018-Feb-21 08:01N 29°49' W 093°58'0 0.0
2018-Feb-21 07:30N 29°49' W 093°58'0 0.0
2018-Feb-21 07:00N 29°49' W 093°58'0 0.0
2018-Feb-21 06:30N 29°49' W 093°58'0 0.0
2018-Feb-21 06:00N 29°49' W 093°58'0 0.0
2018-Feb-21 05:30N 29°49' W 093°58'0 0.0
2018-Feb-21 05:00N 29°49' W 093°58'0 0.0
2018-Feb-21 04:30N 29°49' W 093°58'0 0.0
2018-Feb-21 04:01N 29°49' W 093°58'0 0.0
2018-Feb-21 03:31N 29°49' W 093°58'0 0.0
2018-Feb-21 03:00N 29°49' W 093°58'0 0.0
2018-Feb-21 02:30N 29°49' W 093°58'0 0.0
2018-Feb-21 02:01N 29°49' W 093°58'0 0.0
2018-Feb-21 01:30N 29°49' W 093°58'0 0.0
2018-Feb-21 01:01N 29°49' W 093°58'0 0.0
2018-Feb-21 00:30N 29°49' W 093°58'0 0.0
2018-Feb-21 00:01N 29°49' W 093°58'2 4.0
2018-Feb-20 23:31N 29°51' W 093°57'4 7.8
2018-Feb-20 23:00N 29°54' W 093°54'4 8.2
2018-Feb-20 22:30N 29°58' W 093°51'3 5.7
2018-Feb-20 22:00N 29°59' W 093°54'4 7.3
2018-Feb-20 21:30N 30°01' W 093°58'3 7.0
2018-Feb-20 21:00N 30°02' W 094°02'0 0.7
2018-Feb-20 20:30N 30°02' W 094°02'0 0.0
2018-Feb-20 20:01N 30°02' W 094°02'0 0.0
2018-Feb-20 19:30N 30°02' W 094°02'0 0.0
2018-Feb-20 19:01N 30°02' W 094°02'0 0.0
2018-Feb-20 18:30N 30°02' W 094°02'0 0.0
2018-Feb-20 18:00N 30°02' W 094°02'0 0.0
2018-Feb-20 17:30N 30°02' W 094°02'0 0.0
2018-Feb-20 16:59N 30°02' W 094°02'0 0.0
2018-Feb-20 16:31N 30°02' W 094°02'0 0.0
2018-Feb-20 16:01N 30°02' W 094°02'0 0.0
2018-Feb-20 15:30N 30°02' W 094°02'0 0.0
2018-Feb-20 15:01N 30°02' W 094°02'0 0.0
2018-Feb-20 14:29N 30°02' W 094°02'0 0.0
2018-Feb-20 14:00N 30°02' W 094°02'0 0.0
2018-Feb-20 13:30N 30°02' W 094°02'0 0.0
2018-Feb-20 12:59N 30°02' W 094°02'0 0.0
2018-Feb-20 12:30N 30°02' W 094°02'0 0.0
2018-Feb-20 12:00N 30°02' W 094°02'0 0.0
2018-Feb-20 11:30N 30°02' W 094°02'0 0.0
2018-Feb-20 11:01N 30°02' W 094°02'0 0.0
2018-Feb-20 10:30N 30°02' W 094°02'0 0.0
2018-Feb-20 10:00N 30°02' W 094°02'0 0.0
2018-Feb-20 09:30N 30°02' W 094°02'0 0.0
2018-Feb-20 09:00N 30°02' W 094°02'0 0.0
2018-Feb-20 08:31N 30°02' W 094°02'0 0.0
2018-Feb-20 08:00N 30°02' W 094°02'0 0.0
2018-Feb-20 07:30N 30°02' W 094°02'0 0.0
2018-Feb-20 06:59N 30°02' W 094°02'0 0.0
2018-Feb-20 06:31N 30°02' W 094°02'0 0.0
2018-Feb-20 06:00N 30°02' W 094°02'0 0.0
2018-Feb-20 05:30N 30°02' W 094°02'0 0.0
2018-Feb-20 05:00N 30°02' W 094°02'0 0.0
2018-Feb-20 04:30N 30°02' W 094°02'0 0.0
2018-Feb-20 04:01N 30°02' W 094°02'0 0.0
2018-Feb-20 03:29N 30°02' W 094°02'0 0.0
2018-Feb-20 03:00N 30°02' W 094°02'0 0.0
2018-Feb-20 02:30N 30°02' W 094°02'0 0.0
2018-Feb-20 02:00N 30°02' W 094°02'0 0.0
2018-Feb-20 01:30N 30°02' W 094°02'0 0.0
2018-Feb-20 00:57N 30°02' W 094°02'0 0.0
2018-Feb-20 00:31N 30°02' W 094°02'0 0.0
2018-Feb-19 23:58N 30°02' W 094°02'0 0.0
2018-Feb-19 23:30N 30°02' W 094°02'0 0.0
2018-Feb-19 23:00N 30°02' W 094°02'0 0.0
2018-Feb-19 22:30N 30°02' W 094°02'0 0.0
2018-Feb-19 22:00N 30°02' W 094°02'0 0.0
2018-Feb-19 21:30N 30°02' W 094°02'0 0.0
2018-Feb-19 21:00N 30°02' W 094°02'0 0.0
2018-Feb-19 20:30N 30°02' W 094°02'0 0.0
2018-Feb-19 20:00N 30°02' W 094°02'0 0.0
2018-Feb-19 19:30N 30°02' W 094°02'0 0.0
2018-Feb-19 18:59N 30°02' W 094°02'0 0.0
2018-Feb-19 18:30N 30°02' W 094°02'0 0.0
2018-Feb-19 18:00N 30°02' W 094°02'0 0.0
2018-Feb-19 17:30N 30°02' W 094°02'0 0.0
2018-Feb-19 17:00N 30°02' W 094°02'0 0.1
2018-Feb-19 16:30N 30°02' W 094°02'0 0.0
2018-Feb-19 16:00N 30°02' W 094°02'0 0.0
2018-Feb-19 15:30N 30°02' W 094°02'0 0.0
2018-Feb-19 15:00N 30°02' W 094°02'0 0.0
2018-Feb-19 14:29N 30°02' W 094°02'0 0.0
2018-Feb-19 14:00N 30°02' W 094°02'0 0.0
2018-Feb-19 13:30N 30°02' W 094°02'0 0.0
2018-Feb-19 13:00N 30°02' W 094°02'0 0.0
2018-Feb-19 12:30N 30°02' W 094°02'0 0.0
2018-Feb-19 11:58N 30°02' W 094°02'0 0.0
2018-Feb-19 11:30N 30°02' W 094°02'0 0.0
2018-Feb-19 10:59N 30°02' W 094°02'0 0.0
2018-Feb-19 10:30N 30°02' W 094°02'0 0.0
2018-Feb-19 10:00N 30°02' W 094°02'0 0.0
2018-Feb-19 09:30N 30°02' W 094°02'0 0.0
2018-Feb-19 09:00N 30°02' W 094°02'0 0.0
2018-Feb-19 08:30N 30°02' W 094°02'0 0.0
2018-Feb-19 08:00N 30°02' W 094°02'0 0.0
2018-Feb-19 07:30N 30°02' W 094°02'0 0.0
2018-Feb-19 07:00N 30°02' W 094°02'0 0.0
2018-Feb-19 06:30N 30°02' W 094°02'0 0.0
2018-Feb-19 06:00N 30°02' W 094°02'0 0.0
2018-Feb-19 05:30N 30°02' W 094°02'0 0.0
2018-Feb-19 04:59N 30°02' W 094°02'0 0.0
2018-Feb-19 04:30N 30°02' W 094°02'0 0.0
2018-Feb-19 04:00N 30°02' W 094°02'0 0.0
2018-Feb-19 03:30N 30°02' W 094°02'0 0.0
2018-Feb-19 03:00N 30°02' W 094°02'0 0.0
2018-Feb-19 02:31N 30°02' W 094°02'0 0.0
2018-Feb-19 02:01N 30°02' W 094°02'0 0.0
2018-Feb-19 01:30N 30°02' W 094°02'0 0.0
2018-Feb-19 01:00N 30°02' W 094°02'0 0.0
2018-Feb-19 00:30N 30°02' W 094°02'0 0.0
2018-Feb-19 00:00N 30°02' W 094°02'0 0.0
2018-Feb-18 23:30N 30°02' W 094°02'0 0.0
2018-Feb-18 23:01N 30°02' W 094°02'0 0.0
2018-Feb-18 22:30N 30°02' W 094°02'0 0.0
2018-Feb-18 22:00N 30°02' W 094°02'0 0.0
2018-Feb-18 21:30N 30°02' W 094°02'0 0.0
2018-Feb-18 21:01N 30°02' W 094°02'0 0.0
2018-Feb-18 20:31N 30°02' W 094°02'0 0.0
2018-Feb-18 20:00N 30°02' W 094°02'0 0.0
2018-Feb-18 19:30N 30°02' W 094°02'0 0.0
2018-Feb-18 18:59N 30°02' W 094°02'0 0.0
2018-Feb-18 18:29N 30°02' W 094°02'0 0.0
2018-Feb-18 18:01N 30°02' W 094°02'0 0.0
2018-Feb-18 17:31N 30°02' W 094°02'0 0.0
2018-Feb-18 17:00N 30°02' W 094°02'0 0.4
2018-Feb-18 16:31N 30°02' W 094°02'1 2.5
2018-Feb-18 16:00N 30°03' W 094°02'0 0.6
2018-Feb-18 15:31N 30°03' W 094°02'0 0.0
2018-Feb-18 15:01N 30°03' W 094°02'0 0.0
2018-Feb-18 14:30N 30°03' W 094°02'0 0.0
2018-Feb-18 14:01N 30°03' W 094°02'0 0.0
2018-Feb-18 13:31N 30°03' W 094°02'0 0.0
2018-Feb-18 13:01N 30°03' W 094°02'0 0.0
2018-Feb-18 12:31N 30°03' W 094°02'0 0.0
2018-Feb-18 12:00N 30°03' W 094°02'0 0.0
2018-Feb-18 11:31N 30°03' W 094°02'0 0.0
2018-Feb-18 10:59N 30°03' W 094°02'0 0.0
2018-Feb-18 10:30N 30°03' W 094°02'0 0.0
2018-Feb-18 10:00N 30°03' W 094°02'0 0.0
2018-Feb-18 09:30N 30°03' W 094°02'0 0.0
2018-Feb-18 09:01N 30°03' W 094°02'0 0.0
2018-Feb-18 08:30N 30°03' W 094°02'0 0.0
2018-Feb-18 08:01N 30°03' W 094°02'0 0.0
2018-Feb-18 07:31N 30°03' W 094°02'0 0.0
2018-Feb-18 07:00N 30°03' W 094°02'0 0.0
2018-Feb-18 06:30N 30°03' W 094°02'0 0.0
2018-Feb-18 06:00N 30°03' W 094°02'0 0.0
2018-Feb-18 05:30N 30°03' W 094°02'0 0.0
2018-Feb-18 04:59N 30°03' W 094°02'0 0.0
2018-Feb-18 04:29N 30°03' W 094°02'0 0.0
2018-Feb-18 04:01N 30°03' W 094°02'0 0.0
2018-Feb-18 03:31N 30°03' W 094°02'0 0.0
2018-Feb-18 03:01N 30°03' W 094°02'0 0.0
2018-Feb-18 02:31N 30°03' W 094°02'0 0.0
2018-Feb-18 02:00N 30°03' W 094°02'0 0.0
2018-Feb-18 01:31N 30°03' W 094°02'0 0.0
2018-Feb-18 01:01N 30°03' W 094°02'0 0.0
2018-Feb-18 00:30N 30°03' W 094°02'0 0.0
2018-Feb-18 00:00N 30°03' W 094°02'0 0.0
2018-Feb-17 23:31N 30°03' W 094°02'0 0.0
2018-Feb-17 23:00N 30°03' W 094°02'0 0.0
2018-Feb-17 22:30N 30°03' W 094°02'0 0.0
2018-Feb-17 22:00N 30°03' W 094°02'0 0.0
2018-Feb-17 21:30N 30°03' W 094°02'0 0.0
2018-Feb-17 21:00N 30°03' W 094°02'0 0.0
2018-Feb-17 20:30N 30°03' W 094°02'0 0.0
2018-Feb-17 20:00N 30°03' W 094°02'0 0.0
2018-Feb-17 19:29N 30°03' W 094°02'0 0.0
2018-Feb-17 19:00N 30°03' W 094°02'0 0.0
2018-Feb-17 18:30N 30°03' W 094°02'0 0.0
2018-Feb-17 18:01N 30°03' W 094°02'0 0.0
2018-Feb-17 17:30N 30°03' W 094°02'0 0.0
2018-Feb-17 17:01N 30°03' W 094°02'0 0.0
2018-Feb-17 16:30N 30°03' W 094°02'0 0.0
2018-Feb-17 16:00N 30°03' W 094°02'0 0.0
2018-Feb-17 15:31N 30°03' W 094°02'0 0.0
2018-Feb-17 15:00N 30°03' W 094°02'0 0.0
2018-Feb-17 14:30N 30°03' W 094°02'0 0.0
2018-Feb-17 14:00N 30°03' W 094°02'0 0.0
2018-Feb-17 13:31N 30°03' W 094°02'0 0.0
2018-Feb-17 13:00N 30°03' W 094°02'0 0.0
2018-Feb-17 12:30N 30°03' W 094°02'0 0.0
2018-Feb-17 12:00N 30°03' W 094°02'0 0.0
2018-Feb-17 11:29N 30°03' W 094°02'0 0.0
2018-Feb-17 11:00N 30°03' W 094°02'0 0.0
2018-Feb-17 10:30N 30°03' W 094°02'0 0.0
2018-Feb-17 10:00N 30°03' W 094°02'0 0.0
2018-Feb-17 09:30N 30°03' W 094°02'0 0.0
2018-Feb-17 09:00N 30°03' W 094°02'0 0.0
2018-Feb-17 08:29N 30°03' W 094°02'0 0.0
2018-Feb-17 08:00N 30°03' W 094°02'0 0.0
2018-Feb-17 07:30N 30°03' W 094°02'0 0.0
2018-Feb-17 07:00N 30°03' W 094°02'0 0.0
2018-Feb-17 06:30N 30°03' W 094°02'0 0.0
2018-Feb-17 06:00N 30°03' W 094°02'0 0.0
2018-Feb-17 05:30N 30°03' W 094°02'0 0.0
2018-Feb-17 05:00N 30°03' W 094°02'0 0.0
2018-Feb-17 04:30N 30°03' W 094°02'0 0.0
2018-Feb-17 04:00N 30°03' W 094°02'0 0.0
2018-Feb-17 03:30N 30°03' W 094°02'0 0.0
2018-Feb-17 03:00N 30°03' W 094°02'0 0.0
2018-Feb-17 02:30N 30°03' W 094°02'0 0.0
2018-Feb-17 02:00N 30°03' W 094°02'0 0.0
2018-Feb-17 01:30N 30°03' W 094°02'0 0.0
2018-Feb-17 01:00N 30°03' W 094°02'0 0.0
2018-Feb-17 00:29N 30°03' W 094°02'0 0.0
2018-Feb-17 00:00N 30°03' W 094°02'0 0.0
2018-Feb-16 23:30N 30°03' W 094°02'0 0.0
2018-Feb-16 23:00N 30°03' W 094°02'0 0.0
2018-Feb-16 22:30N 30°03' W 094°02'0 0.0
2018-Feb-16 22:00N 30°03' W 094°02'0 0.1
2018-Feb-16 21:31N 30°03' W 094°02'0 0.3
2018-Feb-16 21:00N 30°02' W 094°02'1 1.7
2018-Feb-16 20:31N 30°02' W 094°02'3 6.3
2018-Feb-16 20:00N 30°01' W 093°58'3 5.8
2018-Feb-16 19:30N 29°59' W 093°55'3 6.5
2018-Feb-16 19:00N 29°59' W 093°52'2 4.0
2018-Feb-16 18:31N 29°59' W 093°49'2 4.6
2018-Feb-16 18:00N 29°60' W 093°47'0 0.1
2018-Feb-16 17:30N 29°60' W 093°47'1 2.9
2018-Feb-16 17:00N 30°01' W 093°46'3 5.6
2018-Feb-16 16:30N 30°03' W 093°44'1 1.7
2018-Feb-16 16:00N 30°03' W 093°43'0 0.0
2018-Feb-16 15:30N 30°03' W 093°43'0 0.0
2018-Feb-16 15:00N 30°03' W 093°43'0 0.0
2018-Feb-16 14:30N 30°03' W 093°43'0 0.0
2018-Feb-16 14:00N 30°03' W 093°43'0 0.0
2018-Feb-16 13:31N 30°03' W 093°43'0 0.0
2018-Feb-16 13:00N 30°03' W 093°43'0 0.0
2018-Feb-16 12:26N 30°03' W 093°43'0 0.0
2018-Feb-16 12:00N 30°03' W 093°43'0 0.0
2018-Feb-16 11:31N 30°03' W 093°43'0 0.0
2018-Feb-16 11:00N 30°03' W 093°43'0 0.0
2018-Feb-16 10:31N 30°03' W 093°43'0 0.0
2018-Feb-16 10:00N 30°03' W 093°43'0 0.0
2018-Feb-16 09:30N 30°03' W 093°43'0 0.0
2018-Feb-16 09:00N 30°03' W 093°43'0 0.0
2018-Feb-16 08:30N 30°03' W 093°43'0 0.0
2018-Feb-16 08:00N 30°03' W 093°43'0 0.0
2018-Feb-16 07:30N 30°03' W 093°43'0 0.0
2018-Feb-16 07:00N 30°03' W 093°43'0 0.0
2018-Feb-16 06:29N 30°03' W 093°43'0 0.0
2018-Feb-16 06:00N 30°03' W 093°43'0 0.0
2018-Feb-16 05:30N 30°03' W 093°43'0 0.0
2018-Feb-16 05:00N 30°03' W 093°43'0 0.0
2018-Feb-16 04:30N 30°03' W 093°43'0 0.0
2018-Feb-16 04:00N 30°03' W 093°43'0 0.0
2018-Feb-16 03:30N 30°03' W 093°43'0 0.0
2018-Feb-16 03:00N 30°03' W 093°43'0 0.0
2018-Feb-16 02:31N 30°03' W 093°43'0 0.0
2018-Feb-16 02:00N 30°03' W 093°43'0 0.0
2018-Feb-16 01:29N 30°03' W 093°43'0 0.1
2018-Feb-16 01:00N 30°03' W 093°43'0 0.3
2018-Feb-16 00:31N 30°03' W 093°43'2 4.1
2018-Feb-16 00:00N 30°04' W 093°41'2 5.0
2018-Feb-15 23:30N 30°04' W 093°38'2 4.4
2018-Feb-15 23:00N 30°04' W 093°35'2 4.1
2018-Feb-15 22:30N 30°04' W 093°33'2 4.3
2018-Feb-15 22:00N 30°04' W 093°30'2 4.2
2018-Feb-15 21:30N 30°04' W 093°28'2 4.4
2018-Feb-15 21:00N 30°04' W 093°25'2 4.3
2018-Feb-15 20:31N 30°04' W 093°23'2 3.8
2018-Feb-15 20:00N 30°04' W 093°21'2 3.7
2018-Feb-15 19:31N 30°05' W 093°20'3 5.0
2018-Feb-15 19:01N 30°08' W 093°20'3 5.0
2018-Feb-15 18:31N 30°10' W 093°19'2 3.8
2018-Feb-15 18:01N 30°12' W 093°18'2 4.1
2018-Feb-15 17:31N 30°13' W 093°16'1 1.8
2018-Feb-15 17:01N 30°14' W 093°16'0 0.1
2018-Feb-15 16:31N 30°14' W 093°15'0 0.1
2018-Feb-15 16:01N 30°14' W 093°15'0 0.0
2018-Feb-15 15:31N 30°14' W 093°15'0 0.0
2018-Feb-15 15:01N 30°14' W 093°15'  

Dump ship's entire track history